<?xml version="1.0" encoding="UTF-8" standalone="no" ?>
<gpx xmlns="http://www.topografix.com/GPX/1/1" xmlns:xsi="http://www.w3.org/2001/XMLSchema-instance" xsi:schemaLocation="http://www.topografix.com/GPX/1/1 http://www.topografix.com/GPX/1/1/gpx.xsd" version="1.1" creator="VisuGPX - https://www.visugpx.com">
  <metadata>
    <name>La Suzanne</name>
    <desc><![CDATA[
]]></desc>
  </metadata>
  <trk>
    <name><![CDATA[La Suzanne]]></name>
    <trkseg>
      <trkpt lat="43.48236" lon="5.12704">
        <ele>49.73010363615</ele>
        <time>2020-03-15T10:20:08Z</time>
      </trkpt>
      <trkpt lat="43.48237" lon="5.12655">
        <ele>37.186047140177</ele>
        <time>2020-03-15T10:25:38Z</time>
      </trkpt>
      <trkpt lat="43.48338" lon="5.12604">
        <ele>48.631699785201</ele>
        <time>2020-03-15T10:28:48Z</time>
      </trkpt>
      <trkpt lat="43.48344" lon="5.12582">
        <ele>47.089903178887</ele>
        <time>2020-03-15T10:30:06Z</time>
      </trkpt>
      <trkpt lat="43.48413" lon="5.1253">
        <ele>51.370708428543</ele>
        <time>2020-03-15T10:32:18Z</time>
      </trkpt>
      <trkpt lat="43.48497" lon="5.12454">
        <ele>48.127318809424</ele>
        <time>2020-03-15T10:34:27Z</time>
      </trkpt>
      <trkpt lat="43.48547" lon="5.12443">
        <ele>59.145739017423</ele>
        <time>2020-03-15T10:35:31Z</time>
      </trkpt>
      <trkpt lat="43.48594" lon="5.12429">
        <ele>45.184211970525</ele>
        <time>2020-03-15T10:36:36Z</time>
      </trkpt>
      <trkpt lat="43.48647" lon="5.12411">
        <ele>54.48884315584</ele>
        <time>2020-03-15T10:37:40Z</time>
      </trkpt>
      <trkpt lat="43.48708" lon="5.12324">
        <ele>81.513555014315</ele>
        <time>2020-03-15T10:39:47Z</time>
      </trkpt>
      <trkpt lat="43.48744" lon="5.12335">
        <ele>38.31461492927</ele>
        <time>2020-03-15T10:40:50Z</time>
      </trkpt>
      <trkpt lat="43.48792" lon="5.12332">
        <ele>40.140793550189</ele>
        <time>2020-03-15T10:41:56Z</time>
      </trkpt>
      <trkpt lat="43.48817" lon="5.12263">
        <ele>37.838636222523</ele>
        <time>2020-03-15T10:43:01Z</time>
      </trkpt>
      <trkpt lat="43.48883" lon="5.12278">
        <ele>39.645111955213</ele>
        <time>2020-03-15T10:44:07Z</time>
      </trkpt>
      <trkpt lat="43.48939" lon="5.12295">
        <ele>44.842782038135</ele>
        <time>2020-03-15T10:45:14Z</time>
      </trkpt>
      <trkpt lat="43.49001" lon="5.12317">
        <ele>43.25860637602</ele>
        <time>2020-03-15T10:46:17Z</time>
      </trkpt>
      <trkpt lat="43.4905" lon="5.1228">
        <ele>65.104081269755</ele>
        <time>2020-03-15T10:47:21Z</time>
      </trkpt>
      <trkpt lat="43.49085" lon="5.12238">
        <ele>46.286138971599</ele>
        <time>2020-03-15T10:48:24Z</time>
      </trkpt>
      <trkpt lat="43.4912" lon="5.12201">
        <ele>51.437081630731</ele>
        <time>2020-03-15T10:50:33Z</time>
      </trkpt>
      <trkpt lat="43.49208" lon="5.12148">
        <ele>49.219628069891</ele>
        <time>2020-03-15T10:52:40Z</time>
      </trkpt>
      <trkpt lat="43.49252" lon="5.12153">
        <ele>43.164743739339</ele>
        <time>2020-03-15T10:53:43Z</time>
      </trkpt>
      <trkpt lat="43.49298" lon="5.1215">
        <ele>43.667468887379</ele>
        <time>2020-03-15T10:55:50Z</time>
      </trkpt>
      <trkpt lat="43.49354" lon="5.12161">
        <ele>36.922285145779</ele>
        <time>2020-03-15T10:57:58Z</time>
      </trkpt>
      <trkpt lat="43.49437" lon="5.12093">
        <ele>44.890987146793</ele>
        <time>2020-03-15T10:59:02Z</time>
      </trkpt>
      <trkpt lat="43.49484" lon="5.12038">
        <ele>33.986680988193</ele>
        <time>2020-03-15T11:01:10Z</time>
      </trkpt>
      <trkpt lat="43.49565" lon="5.12035">
        <ele>39.064231700916</ele>
        <time>2020-03-15T11:03:17Z</time>
      </trkpt>
      <trkpt lat="43.49612" lon="5.11999">
        <ele>47.893098783393</ele>
        <time>2020-03-15T11:04:21Z</time>
      </trkpt>
      <trkpt lat="43.49658" lon="5.11994">
        <ele>40.778803482913</ele>
        <time>2020-03-15T11:05:24Z</time>
      </trkpt>
      <trkpt lat="43.49748" lon="5.11996">
        <ele>52.785912375619</ele>
        <time>2020-03-15T11:07:32Z</time>
      </trkpt>
      <trkpt lat="43.49781" lon="5.12003">
        <ele>46.286142243192</ele>
        <time>2020-03-15T11:08:36Z</time>
      </trkpt>
      <trkpt lat="43.49798" lon="5.11974">
        <ele>51.030904263185</ele>
        <time>2020-03-15T11:09:36Z</time>
      </trkpt>
      <trkpt lat="43.49858" lon="5.11946">
        <ele>42.880830081141</ele>
        <time>2020-03-15T11:10:40Z</time>
      </trkpt>
      <trkpt lat="43.49942" lon="5.11857">
        <ele>50.727395957686</ele>
        <time>2020-03-15T11:12:49Z</time>
      </trkpt>
      <trkpt lat="43.49991" lon="5.11802">
        <ele>46.980269482345</ele>
        <time>2020-03-15T11:13:53Z</time>
      </trkpt>
      <trkpt lat="43.5" lon="5.11794">
        <ele>47.631085280672</ele>
        <time>2020-03-15T11:14:53Z</time>
      </trkpt>
      <trkpt lat="43.50013" lon="5.11788">
        <ele>44.841918709517</ele>
        <time>2020-03-15T11:15:53Z</time>
      </trkpt>
      <trkpt lat="43.50103" lon="5.1171">
        <ele>51.265016896672</ele>
        <time>2020-03-15T11:16:58Z</time>
      </trkpt>
      <trkpt lat="43.50137" lon="5.11662">
        <ele>49.15421396736</ele>
        <time>2020-03-15T11:19:06Z</time>
      </trkpt>
      <trkpt lat="43.50155" lon="5.11646">
        <ele>50.002535906908</ele>
        <time>2020-03-15T11:20:06Z</time>
      </trkpt>
      <trkpt lat="43.50167" lon="5.11627">
        <ele>43.179929015357</ele>
        <time>2020-03-15T11:21:07Z</time>
      </trkpt>
      <trkpt lat="43.50179" lon="5.11589">
        <ele>47.894189219131</ele>
        <time>2020-03-15T11:23:11Z</time>
      </trkpt>
      <trkpt lat="43.5019" lon="5.11591">
        <ele>47.074300930047</ele>
        <time>2020-03-15T11:24:18Z</time>
      </trkpt>
      <trkpt lat="43.50282" lon="5.11599">
        <ele>54.539867284798</ele>
        <time>2020-03-15T11:25:18Z</time>
      </trkpt>
      <trkpt lat="43.50343" lon="5.11567">
        <ele>49.314882665923</ele>
        <time>2020-03-15T11:27:25Z</time>
      </trkpt>
      <trkpt lat="43.50427" lon="5.11517">
        <ele>56.508406926626</ele>
        <time>2020-03-15T11:29:32Z</time>
      </trkpt>
      <trkpt lat="43.50435" lon="5.11511">
        <ele>68.302160191468</ele>
        <time>2020-03-15T11:30:36Z</time>
      </trkpt>
      <trkpt lat="43.50504" lon="5.11485">
        <ele>59.949545464392</ele>
        <time>2020-03-15T11:31:39Z</time>
      </trkpt>
      <trkpt lat="43.50574" lon="5.11436">
        <ele>48.274637291778</ele>
        <time>2020-03-15T11:33:46Z</time>
      </trkpt>
      <trkpt lat="43.50672" lon="5.1136">
        <ele>52.566761266843</ele>
        <time>2020-03-15T11:35:53Z</time>
      </trkpt>
      <trkpt lat="43.50691" lon="5.11372">
        <ele>44.776347083221</ele>
        <time>2020-03-15T11:38:01Z</time>
      </trkpt>
      <trkpt lat="43.50682" lon="5.11379">
        <ele>43.736739278844</ele>
        <time>2020-03-15T11:39:06Z</time>
      </trkpt>
      <trkpt lat="43.50674" lon="5.11421">
        <ele>48.558037214161</ele>
        <time>2020-03-15T11:41:15Z</time>
      </trkpt>
      <trkpt lat="43.50689" lon="5.11384">
        <ele>63.267385511091</ele>
        <time>2020-03-15T11:42:18Z</time>
      </trkpt>
      <trkpt lat="43.50671" lon="5.11371">
        <ele>54.541691343208</ele>
        <time>2020-03-15T12:21:31Z</time>
      </trkpt>
      <trkpt lat="43.50671" lon="5.1145">
        <ele>51.54235837975</ele>
        <time>2020-03-15T12:22:31Z</time>
      </trkpt>
      <trkpt lat="43.50684" lon="5.1152">
        <ele>51.538442224579</ele>
        <time>2020-03-15T12:23:31Z</time>
      </trkpt>
      <trkpt lat="43.50696" lon="5.11606">
        <ele>51.095017115038</ele>
        <time>2020-03-15T12:24:31Z</time>
      </trkpt>
      <trkpt lat="43.50707" lon="5.1169">
        <ele>51.760197749949</ele>
        <time>2020-03-15T12:25:31Z</time>
      </trkpt>
      <trkpt lat="43.5072" lon="5.11776">
        <ele>51.306976019002</ele>
        <time>2020-03-15T12:26:31Z</time>
      </trkpt>
      <trkpt lat="43.50734" lon="5.11857">
        <ele>51.875232512719</ele>
        <time>2020-03-15T12:27:31Z</time>
      </trkpt>
      <trkpt lat="43.50749" lon="5.11941">
        <ele>51.793451340727</ele>
        <time>2020-03-15T12:28:32Z</time>
      </trkpt>
      <trkpt lat="43.50759" lon="5.12024">
        <ele>52.211908175456</ele>
        <time>2020-03-15T12:29:32Z</time>
      </trkpt>
      <trkpt lat="43.50746" lon="5.12113">
        <ele>52.016588785266</ele>
        <time>2020-03-15T12:30:32Z</time>
      </trkpt>
      <trkpt lat="43.50705" lon="5.12183">
        <ele>51.479917598788</ele>
        <time>2020-03-15T12:31:32Z</time>
      </trkpt>
      <trkpt lat="43.50653" lon="5.12247">
        <ele>53.12382845623</ele>
        <time>2020-03-15T12:32:32Z</time>
      </trkpt>
      <trkpt lat="43.50624" lon="5.12302">
        <ele>52.427842725564</ele>
        <time>2020-03-15T12:33:32Z</time>
      </trkpt>
      <trkpt lat="43.50584" lon="5.12316">
        <ele>52.573537883913</ele>
        <time>2020-03-15T12:34:32Z</time>
      </trkpt>
      <trkpt lat="43.50535" lon="5.12255">
        <ele>51.907582046524</ele>
        <time>2020-03-15T12:35:32Z</time>
      </trkpt>
      <trkpt lat="43.50484" lon="5.12191">
        <ele>52.143498824208</ele>
        <time>2020-03-15T12:36:32Z</time>
      </trkpt>
      <trkpt lat="43.50436" lon="5.12131">
        <ele>51.84871055275</ele>
        <time>2020-03-15T12:37:33Z</time>
      </trkpt>
      <trkpt lat="43.50386" lon="5.12068">
        <ele>51.626247723797</ele>
        <time>2020-03-15T12:38:33Z</time>
      </trkpt>
      <trkpt lat="43.50348" lon="5.12025">
        <ele>52.478595103287</ele>
        <time>2020-03-15T12:39:33Z</time>
      </trkpt>
      <trkpt lat="43.50333" lon="5.12004">
        <ele>51.870292988135</ele>
        <time>2020-03-15T12:40:33Z</time>
      </trkpt>
      <trkpt lat="43.50279" lon="5.11937">
        <ele>51.853689886511</ele>
        <time>2020-03-15T12:41:33Z</time>
      </trkpt>
      <trkpt lat="43.50266" lon="5.11917">
        <ele>51.735644649712</ele>
        <time>2020-03-15T12:42:33Z</time>
      </trkpt>
      <trkpt lat="43.50227" lon="5.1186">
        <ele>49.162642643525</ele>
        <time>2020-03-15T12:43:34Z</time>
      </trkpt>
      <trkpt lat="43.50194" lon="5.11944">
        <ele>51.403380590251</ele>
        <time>2020-03-15T12:44:34Z</time>
      </trkpt>
      <trkpt lat="43.50143" lon="5.12013">
        <ele>53.004678637081</ele>
        <time>2020-03-15T12:45:34Z</time>
      </trkpt>
      <trkpt lat="43.50103" lon="5.12052">
        <ele>51.795161163713</ele>
        <time>2020-03-15T12:46:34Z</time>
      </trkpt>
      <trkpt lat="43.50079" lon="5.12061">
        <ele>51.448156026125</ele>
        <time>2020-03-15T12:47:34Z</time>
      </trkpt>
      <trkpt lat="43.50009" lon="5.12085">
        <ele>52.149518228568</ele>
        <time>2020-03-15T12:48:34Z</time>
      </trkpt>
      <trkpt lat="43.49969" lon="5.12102">
        <ele>53.118938797145</ele>
        <time>2020-03-15T12:49:35Z</time>
      </trkpt>
      <trkpt lat="43.49935" lon="5.12123">
        <ele>52.827844388382</ele>
        <time>2020-03-15T12:50:35Z</time>
      </trkpt>
      <trkpt lat="43.49883" lon="5.12168">
        <ele>53.088400786232</ele>
        <time>2020-03-15T12:51:35Z</time>
      </trkpt>
      <trkpt lat="43.49825" lon="5.12221">
        <ele>53.74478234953</ele>
        <time>2020-03-15T12:52:35Z</time>
      </trkpt>
      <trkpt lat="43.49782" lon="5.12259">
        <ele>54.226673325768</ele>
        <time>2020-03-15T12:53:35Z</time>
      </trkpt>
      <trkpt lat="43.49746" lon="5.12286">
        <ele>54.632929221433</ele>
        <time>2020-03-15T12:54:35Z</time>
      </trkpt>
      <trkpt lat="43.49693" lon="5.12347">
        <ele>54.110550762645</ele>
        <time>2020-03-15T12:55:35Z</time>
      </trkpt>
      <trkpt lat="43.49644" lon="5.12409">
        <ele>53.88046238163</ele>
        <time>2020-03-15T12:56:35Z</time>
      </trkpt>
      <trkpt lat="43.49614" lon="5.12496">
        <ele>54.347065787014</ele>
        <time>2020-03-15T12:57:35Z</time>
      </trkpt>
      <trkpt lat="43.49565" lon="5.12545">
        <ele>54.359655821112</ele>
        <time>2020-03-15T12:58:35Z</time>
      </trkpt>
      <trkpt lat="43.49539" lon="5.12574">
        <ele>54.906623686312</ele>
        <time>2020-03-15T12:59:36Z</time>
      </trkpt>
      <trkpt lat="43.49509" lon="5.12619">
        <ele>55.227063643523</ele>
        <time>2020-03-15T13:00:36Z</time>
      </trkpt>
      <trkpt lat="43.49483" lon="5.12677">
        <ele>54.489642429268</ele>
        <time>2020-03-15T13:01:36Z</time>
      </trkpt>
      <trkpt lat="43.49465" lon="5.12755">
        <ele>54.958906474076</ele>
        <time>2020-03-15T13:02:36Z</time>
      </trkpt>
      <trkpt lat="43.49415" lon="5.12808">
        <ele>56.550142555235</ele>
        <time>2020-03-15T13:03:36Z</time>
      </trkpt>
      <trkpt lat="43.4934" lon="5.12822">
        <ele>55.996306152919</ele>
        <time>2020-03-15T13:04:36Z</time>
      </trkpt>
      <trkpt lat="43.4928" lon="5.12833">
        <ele>54.612762095897</ele>
        <time>2020-03-15T13:05:36Z</time>
      </trkpt>
      <trkpt lat="43.49209" lon="5.12843">
        <ele>56.089673705506</ele>
        <time>2020-03-15T13:06:36Z</time>
      </trkpt>
      <trkpt lat="43.49142" lon="5.12858">
        <ele>55.682055087459</ele>
        <time>2020-03-15T13:07:36Z</time>
      </trkpt>
      <trkpt lat="43.49104" lon="5.12869">
        <ele>55.196662138438</ele>
        <time>2020-03-15T13:08:36Z</time>
      </trkpt>
      <trkpt lat="43.49046" lon="5.1288">
        <ele>55.163897692091</ele>
        <time>2020-03-15T13:09:37Z</time>
      </trkpt>
      <trkpt lat="43.4899" lon="5.1286">
        <ele>56.978756712334</ele>
        <time>2020-03-15T13:10:37Z</time>
      </trkpt>
      <trkpt lat="43.48916" lon="5.1287">
        <ele>55.733334460637</ele>
        <time>2020-03-15T13:11:37Z</time>
      </trkpt>
      <trkpt lat="43.48851" lon="5.12867">
        <ele>55.262042316793</ele>
        <time>2020-03-15T13:12:37Z</time>
      </trkpt>
      <trkpt lat="43.48781" lon="5.12865">
        <ele>54.906932724739</ele>
        <time>2020-03-15T13:13:37Z</time>
      </trkpt>
      <trkpt lat="43.48714" lon="5.12901">
        <ele>54.85265809785</ele>
        <time>2020-03-15T13:14:37Z</time>
      </trkpt>
      <trkpt lat="43.48691" lon="5.12904">
        <ele>55.792296072387</ele>
        <time>2020-03-15T13:15:37Z</time>
      </trkpt>
      <trkpt lat="43.48661" lon="5.12828">
        <ele>54.696413902106</ele>
        <time>2020-03-15T13:16:37Z</time>
      </trkpt>
      <trkpt lat="43.48602" lon="5.1278">
        <ele>55.008878143669</ele>
        <time>2020-03-15T13:17:37Z</time>
      </trkpt>
      <trkpt lat="43.48531" lon="5.1275">
        <ele>55.425021598426</ele>
        <time>2020-03-15T13:18:38Z</time>
      </trkpt>
      <trkpt lat="43.48516" lon="5.12757">
        <ele>55.73632495319</ele>
        <time>2020-03-15T13:19:38Z</time>
      </trkpt>
      <trkpt lat="43.48526" lon="5.12741">
        <ele>55.101401943784</ele>
        <time>2020-03-15T13:20:38Z</time>
      </trkpt>
      <trkpt lat="43.48558" lon="5.1276">
        <ele>55.690426621345</ele>
        <time>2020-03-15T13:21:38Z</time>
      </trkpt>
      <trkpt lat="43.48621" lon="5.12791">
        <ele>55.257948476914</ele>
        <time>2020-03-15T13:22:38Z</time>
      </trkpt>
      <trkpt lat="43.486" lon="5.12688">
        <ele>55.532387121576</ele>
        <time>2020-03-15T13:23:38Z</time>
      </trkpt>
      <trkpt lat="43.48611" lon="5.12719">
        <ele>55.0991229489</ele>
        <time>2020-03-15T13:24:38Z</time>
      </trkpt>
      <trkpt lat="43.48632" lon="5.12805">
        <ele>55.479715363314</ele>
        <time>2020-03-15T13:25:38Z</time>
      </trkpt>
      <trkpt lat="43.48676" lon="5.1288">
        <ele>55.254723659084</ele>
        <time>2020-03-15T13:26:38Z</time>
      </trkpt>
      <trkpt lat="43.48715" lon="5.12935">
        <ele>56.815582370144</ele>
        <time>2020-03-15T13:27:38Z</time>
      </trkpt>
      <trkpt lat="43.48738" lon="5.13028">
        <ele>54.711585119383</ele>
        <time>2020-03-15T13:28:39Z</time>
      </trkpt>
      <trkpt lat="43.48757" lon="5.13089">
        <ele>55.861216952564</ele>
        <time>2020-03-15T13:29:39Z</time>
      </trkpt>
      <trkpt lat="43.48763" lon="5.13156">
        <ele>57.04764765428</ele>
        <time>2020-03-15T13:30:39Z</time>
      </trkpt>
      <trkpt lat="43.48752" lon="5.13178">
        <ele>57.112313117102</ele>
        <time>2020-03-15T13:31:39Z</time>
      </trkpt>
      <trkpt lat="43.48745" lon="5.13188">
        <ele>57.389558241604</ele>
        <time>2020-03-15T13:32:39Z</time>
      </trkpt>
      <trkpt lat="43.4871" lon="5.1323">
        <ele>57.551728105642</ele>
        <time>2020-03-15T13:33:39Z</time>
      </trkpt>
      <trkpt lat="43.48656" lon="5.13296">
        <ele>58.462563849032</ele>
        <time>2020-03-15T13:34:39Z</time>
      </trkpt>
      <trkpt lat="43.48629" lon="5.13374">
        <ele>60.340526314582</ele>
        <time>2020-03-15T13:35:39Z</time>
      </trkpt>
      <trkpt lat="43.48667" lon="5.13459">
        <ele>57.268450799847</ele>
        <time>2020-03-15T13:36:39Z</time>
      </trkpt>
      <trkpt lat="43.48611" lon="5.13523">
        <ele>57.631052609309</ele>
        <time>2020-03-15T13:37:39Z</time>
      </trkpt>
      <trkpt lat="43.48573" lon="5.13598">
        <ele>57.755521485619</ele>
        <time>2020-03-15T13:38:40Z</time>
      </trkpt>
      <trkpt lat="43.48532" lon="5.13632">
        <ele>56.880926891725</ele>
        <time>2020-03-15T13:39:40Z</time>
      </trkpt>
      <trkpt lat="43.48505" lon="5.13534">
        <ele>58.315789198306</ele>
        <time>2020-03-15T13:40:40Z</time>
      </trkpt>
      <trkpt lat="43.48477" lon="5.13446">
        <ele>57.925461854868</ele>
        <time>2020-03-15T13:41:40Z</time>
      </trkpt>
      <trkpt lat="43.4845" lon="5.13355">
        <ele>57.718087271869</ele>
        <time>2020-03-15T13:42:40Z</time>
      </trkpt>
      <trkpt lat="43.4842" lon="5.13265">
        <ele>58.03650560407</ele>
        <time>2020-03-15T13:43:40Z</time>
      </trkpt>
      <trkpt lat="43.4839" lon="5.13173">
        <ele>57.473286467521</ele>
        <time>2020-03-15T13:44:40Z</time>
      </trkpt>
      <trkpt lat="43.48363" lon="5.13084">
        <ele>58.01360829939</ele>
        <time>2020-03-15T13:45:40Z</time>
      </trkpt>
      <trkpt lat="43.4834" lon="5.13041">
        <ele>57.913273384435</ele>
        <time>2020-03-15T13:46:40Z</time>
      </trkpt>
      <trkpt lat="43.48323" lon="5.12963">
        <ele>58.147478887376</ele>
        <time>2020-03-15T13:47:41Z</time>
      </trkpt>
      <trkpt lat="43.48297" lon="5.12872">
        <ele>57.83915390695</ele>
        <time>2020-03-15T13:48:41Z</time>
      </trkpt>
      <trkpt lat="43.48268" lon="5.1278">
        <ele>58.165674250589</ele>
        <time>2020-03-15T13:49:41Z</time>
      </trkpt>
      <trkpt lat="43.48251" lon="5.12736">
        <ele>57.804061661158</ele>
        <time>2020-03-15T13:50:41Z</time>
      </trkpt>
      <trkpt lat="43.48234" lon="5.12701">
        <ele>57.505450580615</ele>
        <time>2020-03-15T13:51:41Z</time>
      </trkpt>
    </trkseg>
  </trk>
</gpx>